createdAt,value
2023-04-17T00:02:19.956Z,29.13
2023-04-17T00:04:48.494Z,27.45
2023-04-17T00:07:15.980Z,27.20
2023-04-17T00:09:43.468Z,27.52
2023-04-17T00:12:11.000Z,26.10
2023-04-17T00:14:38.443Z,24.73
2023-04-17T00:17:07.332Z,28.05
2023-04-17T00:19:34.901Z,28.63
2023-04-17T00:22:02.372Z,28.58
2023-04-17T00:24:29.834Z,26.98
2023-04-17T00:26:58.349Z,29.60
2023-04-17T00:29:25.825Z,30.70
2023-04-17T00:31:53.307Z,24.15
2023-04-17T00:34:22.133Z,30.02
2023-04-17T00:36:49.610Z,25.83
2023-04-17T00:39:17.299Z,33.35
2023-04-17T00:41:44.787Z,27.05
2023-04-17T00:44:12.332Z,29.30
2023-04-17T00:46:40.067Z,28.00
2023-04-17T00:49:07.697Z,27.42
2023-04-17T00:51:36.515Z,26.83
2023-04-17T00:54:04.163Z,28.63
2023-04-17T00:56:31.684Z,24.85
2023-04-17T00:59:00.352Z,27.33
2023-04-17T01:01:27.901Z,27.98
2023-04-17T01:03:55.931Z,27.92
2023-04-17T01:06:23.561Z,27.98
2023-04-17T01:08:52.428Z,32.30
2023-04-17T01:11:19.907Z,23.90
2023-04-17T01:13:47.629Z,29.88
2023-04-17T01:16:15.596Z,27.80
2023-04-17T01:18:43.347Z,24.77
2023-04-17T01:21:11.185Z,27.95
2023-04-17T01:23:44.615Z,26.05
2023-04-17T01:26:18.003Z,25.45
2023-04-17T01:28:45.575Z,29.92
2023-04-17T01:31:16.349Z,22.73
2023-04-17T01:33:43.884Z,21.23
2023-04-17T01:36:11.340Z,25.90
2023-04-17T01:38:39.355Z,26.92
2023-04-17T01:41:10.431Z,28.92
2023-04-17T01:43:41.377Z,26.88
2023-04-17T01:46:09.083Z,16.67
2023-04-17T01:48:37.561Z,27.25
2023-04-17T01:51:06.014Z,27.17
2023-04-17T01:53:34.535Z,28.55
2023-04-17T01:56:02.177Z,29.23
2023-04-17T01:58:29.718Z,24.10
2023-04-17T02:00:58.606Z,23.15
2023-04-17T02:03:26.461Z,25.27
2023-04-17T02:05:54.570Z,28.27
2023-04-17T02:08:22.161Z,24.83
2023-04-17T02:10:49.813Z,26.73
2023-04-17T02:13:17.314Z,27.45
2023-04-17T02:15:44.913Z,26.20
2023-04-17T02:18:13.903Z,25.70
2023-04-17T02:20:41.387Z,25.92
2023-04-17T02:23:08.953Z,25.73
2023-04-17T02:25:36.423Z,25.33
2023-04-17T02:28:13.039Z,28.33
2023-04-17T02:30:40.536Z,31.45
2023-04-17T02:33:08.385Z,30.88
2023-04-17T02:35:37.306Z,25.77
2023-04-17T02:38:05.127Z,28.17
2023-04-17T02:40:32.642Z,27.55
2023-04-17T02:43:00.216Z,28.73
2023-04-17T02:45:27.688Z,32.63
2023-04-17T02:47:55.402Z,31.88
2023-04-17T02:50:23.060Z,23.33
2023-04-17T02:52:51.811Z,28.90
2023-04-17T02:55:19.634Z,30.42
2023-04-17T02:57:47.092Z,28.50
2023-04-17T03:00:15.221Z,28.75
2023-04-17T03:02:43.032Z,29.88
2023-04-17T03:05:11.585Z,31.65
2023-04-17T03:07:39.228Z,33.28
2023-04-17T03:10:09.681Z,28.70
2023-04-17T03:12:37.311Z,26.25
2023-04-17T03:15:06.982Z,30.13
2023-04-17T03:17:35.796Z,21.67
2023-04-17T03:20:05.310Z,30.80
2023-04-17T03:22:32.806Z,26.25
2023-04-17T03:25:00.272Z,32.17
2023-04-17T03:27:29.075Z,27.00
2023-04-17T03:29:56.582Z,29.67
2023-04-17T03:32:24.097Z,32.00
2023-04-17T03:34:51.751Z,29.63
2023-04-17T03:37:19.245Z,33.10
2023-04-17T03:39:46.697Z,33.45
2023-04-17T03:42:14.769Z,33.78
2023-04-17T03:44:43.704Z,31.50
2023-04-17T03:47:11.540Z,32.88
2023-04-17T03:49:38.975Z,30.48
2023-04-17T03:52:06.498Z,30.38
2023-04-17T03:54:35.802Z,31.02
2023-04-17T03:57:03.485Z,28.98
2023-04-17T03:59:32.105Z,29.80
2023-04-17T04:02:01.263Z,33.95
2023-04-17T04:04:29.053Z,32.30
2023-04-17T04:06:57.921Z,31.88
2023-04-17T04:09:25.893Z,34.05
2023-04-17T04:11:53.478Z,30.38
2023-04-17T04:14:20.991Z,32.40
2023-04-17T04:16:48.516Z,36.63
2023-04-17T04:19:17.347Z,31.48
2023-04-17T04:21:45.164Z,34.20
2023-04-17T04:24:13.400Z,37.00
2023-04-17T04:26:42.015Z,37.85
2023-04-17T04:29:11.905Z,37.35
2023-04-17T04:31:40.194Z,38.20
2023-04-17T04:34:08.837Z,37.92
2023-04-17T04:36:42.046Z,35.50
2023-04-17T04:39:10.134Z,38.90
2023-04-17T04:41:38.187Z,35.85
2023-04-17T04:44:05.982Z,38.13
2023-04-17T04:46:33.497Z,43.22
2023-04-17T04:49:01.044Z,39.15
2023-04-17T04:51:28.576Z,42.47
2023-04-17T04:53:57.413Z,39.90
2023-04-17T04:56:25.114Z,44.15
2023-04-17T04:58:52.792Z,38.78
2023-04-17T05:01:21.002Z,35.55
2023-04-17T05:03:48.723Z,42.63
2023-04-17T05:06:17.068Z,36.58
2023-04-17T05:08:45.103Z,37.97
2023-04-17T05:11:13.982Z,41.95
2023-04-17T05:13:41.541Z,37.38
2023-04-17T05:16:09.115Z,38.67
2023-04-17T05:18:36.600Z,39.85
2023-04-17T05:21:04.316Z,39.70
2023-04-17T05:23:31.803Z,40.15
2023-04-17T05:25:59.530Z,36.20
2023-04-17T05:28:29.882Z,37.88
2023-04-17T05:30:57.833Z,38.72
2023-04-17T05:33:25.448Z,42.03
2023-04-17T05:35:55.452Z,38.83
2023-04-17T05:38:23.754Z,36.80
2023-04-17T05:40:51.329Z,31.73
2023-04-17T05:43:18.839Z,37.25
2023-04-17T05:45:47.843Z,41.92
2023-04-17T05:48:15.830Z,40.90
2023-04-17T05:50:43.339Z,40.97
2023-04-17T05:53:10.977Z,39.63
2023-04-17T05:55:38.448Z,35.13
2023-04-17T05:58:20.449Z,39.00
2023-04-17T06:00:52.559Z,40.00
2023-04-17T06:03:21.038Z,43.55
2023-04-17T06:05:48.795Z,37.45
2023-04-17T06:08:16.443Z,36.67
2023-04-17T06:10:45.833Z,37.55
2023-04-17T06:13:14.162Z,39.92
2023-04-17T06:15:41.879Z,39.95
2023-04-17T06:18:10.721Z,36.03
2023-04-17T06:20:40.204Z,40.83
2023-04-17T06:23:07.845Z,37.67
2023-04-17T06:25:35.453Z,41.05
2023-04-17T06:28:02.954Z,38.78
2023-04-17T06:30:30.545Z,38.67
2023-04-17T06:32:58.149Z,37.90
2023-04-17T06:35:27.025Z,40.28
2023-04-17T06:37:54.930Z,40.35
2023-04-17T06:40:22.504Z,41.53
2023-04-17T06:42:49.967Z,44.15
2023-04-17T06:45:17.626Z,42.55
2023-04-17T06:47:46.869Z,46.05
2023-04-17T06:50:14.706Z,40.22
2023-04-17T06:52:43.839Z,42.35
2023-04-17T06:55:11.841Z,40.97
2023-04-17T06:57:39.433Z,42.20
2023-04-17T07:00:08.203Z,40.08
2023-04-17T07:02:35.833Z,39.72
2023-04-17T07:05:06.910Z,39.85
2023-04-17T07:07:35.972Z,41.80
2023-04-17T07:10:05.754Z,43.60
2023-04-17T07:12:33.770Z,38.75
2023-04-17T07:15:01.274Z,42.33
2023-04-17T07:17:28.815Z,42.58
2023-04-17T07:19:56.679Z,37.17
2023-04-17T07:22:25.998Z,38.33
2023-04-17T07:24:54.840Z,35.42
2023-04-17T07:27:23.697Z,32.53
2023-04-17T07:29:54.638Z,39.95
2023-04-17T07:32:24.198Z,35.85
2023-04-17T07:34:52.191Z,37.13
2023-04-17T07:37:20.052Z,39.65
2023-04-17T07:39:49.707Z,34.63
2023-04-17T07:42:17.317Z,38.88
2023-04-17T07:44:46.861Z,35.88
2023-04-17T07:47:14.533Z,39.75
2023-04-17T07:49:42.115Z,37.35
2023-04-17T07:52:09.571Z,37.83
2023-04-17T07:54:37.084Z,38.55
2023-04-17T07:57:04.968Z,34.08
2023-04-17T07:59:32.829Z,43.60
2023-04-17T08:02:01.735Z,35.85
2023-04-17T08:04:29.691Z,34.65
2023-04-17T08:06:57.483Z,36.35
2023-04-17T08:09:24.993Z,41.55
2023-04-17T08:11:57.469Z,38.17
2023-04-17T08:14:25.523Z,37.15
2023-04-17T08:16:53.164Z,35.88
2023-04-17T08:19:22.236Z,34.20
2023-04-17T08:21:50.676Z,33.05
2023-04-17T08:24:19.958Z,39.00
2023-04-17T08:26:48.264Z,37.10
2023-04-17T08:29:15.892Z,32.53
2023-04-17T08:31:43.759Z,37.72
2023-04-17T08:34:14.989Z,41.42
2023-04-17T08:39:12.861Z,40.83
2023-04-17T08:41:45.263Z,35.70
2023-04-17T08:44:12.783Z,30.42
2023-04-17T08:46:41.035Z,34.15
2023-04-17T08:49:08.661Z,32.25
2023-04-17T08:51:36.657Z,28.60
2023-04-17T08:54:05.654Z,28.98
2023-04-17T08:56:33.210Z,27.55
2023-04-17T08:59:00.878Z,29.40
2023-04-17T09:01:29.896Z,31.27
2023-04-17T09:03:58.072Z,28.60
2023-04-17T09:06:25.860Z,29.30
2023-04-17T09:08:58.773Z,34.90
2023-04-17T09:11:27.859Z,25.55
2023-04-17T09:13:55.390Z,31.00
2023-04-17T09:16:25.600Z,28.90
2023-04-17T09:19:06.055Z,25.83
2023-04-17T09:21:33.519Z,27.80
2023-04-17T09:24:01.138Z,28.02
2023-04-17T09:26:33.299Z,31.20
2023-04-17T09:29:09.294Z,30.20
2023-04-17T09:31:37.659Z,34.95
2023-04-17T09:34:07.621Z,30.42
2023-04-17T09:36:36.884Z,26.23
2023-04-17T09:39:05.630Z,32.45
2023-04-17T09:41:36.335Z,26.92
2023-04-17T09:44:05.406Z,26.65
2023-04-17T09:46:38.883Z,30.67
2023-04-17T09:49:10.965Z,26.98
2023-04-17T09:54:07.793Z,28.35
2023-04-17T09:56:37.896Z,26.27
2023-04-17T09:59:06.898Z,26.88
2023-04-17T10:01:35.908Z,29.10
2023-04-17T10:04:04.938Z,29.95
2023-04-17T10:06:33.483Z,27.17
2023-04-17T10:09:01.286Z,25.42
2023-04-17T10:11:31.385Z,25.17
2023-04-17T10:14:05.682Z,26.38
2023-04-17T10:16:37.172Z,26.50
2023-04-17T10:19:27.622Z,24.42
2023-04-17T10:22:29.527Z,20.75
2023-04-17T10:25:18.387Z,21.58
2023-04-17T10:27:48.347Z,21.70
2023-04-17T10:30:17.757Z,22.98
2023-04-17T10:32:47.012Z,23.77
2023-04-17T10:35:35.853Z,22.20
2023-04-17T10:38:07.310Z,22.13
2023-04-17T10:40:36.193Z,19.75
2023-04-17T10:43:09.750Z,18.85
2023-04-17T10:45:55.977Z,20.10
2023-04-17T10:48:27.847Z,16.83
2023-04-17T10:53:40.408Z,19.52
2023-04-17T10:56:08.346Z,22.20
2023-04-17T10:58:39.297Z,15.05
2023-04-17T11:01:12.339Z,14.70
2023-04-17T11:03:40.190Z,15.00
2023-04-17T11:06:08.464Z,17.02
2023-04-17T11:08:36.127Z,16.25
2023-04-17T11:11:03.772Z,21.25
2023-04-17T11:13:35.171Z,26.88
2023-04-17T11:16:05.012Z,19.08
2023-04-17T11:18:33.996Z,18.83
2023-04-17T11:21:02.357Z,17.83
2023-04-17T11:23:33.513Z,18.02
2023-04-17T11:26:01.385Z,12.43
2023-04-17T11:28:29.303Z,19.05
2023-04-17T11:30:56.946Z,17.58
2023-04-17T11:33:24.518Z,16.83
2023-04-17T11:35:55.379Z,14.88
2023-04-17T11:38:24.168Z,17.90
2023-04-17T11:40:53.023Z,17.92
2023-04-17T11:43:22.340Z,16.23
2023-04-17T11:45:51.970Z,18.02
2023-04-17T11:48:22.655Z,20.55
2023-04-17T11:50:50.144Z,18.45
2023-04-17T11:53:19.188Z,18.77
2023-04-17T11:55:47.466Z,18.73
2023-04-17T11:58:15.441Z,20.35
2023-04-17T12:00:43.690Z,18.60
2023-04-17T12:03:33.517Z,21.20
2023-04-17T12:06:01.650Z,21.50
2023-04-17T12:08:31.077Z,18.52
2023-04-17T12:10:59.194Z,18.40
2023-04-17T12:13:26.899Z,23.08
2023-04-17T12:15:54.397Z,18.92
2023-04-17T12:18:21.948Z,28.58
2023-04-17T12:20:49.451Z,22.95
2023-04-17T12:23:16.965Z,24.00
2023-04-17T12:25:46.197Z,22.65
2023-04-17T12:28:13.715Z,20.17
2023-04-17T12:30:42.686Z,23.90
2023-04-17T12:33:10.174Z,21.95
2023-04-17T12:35:38.027Z,21.35
2023-04-17T12:38:05.560Z,23.70
2023-04-17T12:40:33.307Z,25.40
2023-04-17T12:43:02.183Z,23.75
2023-04-17T12:45:29.791Z,22.90
2023-04-17T12:47:57.443Z,27.20
2023-04-17T12:50:25.231Z,25.70
2023-04-17T12:52:52.712Z,26.88
2023-04-17T12:55:20.533Z,25.95
2023-04-17T12:57:48.181Z,23.13
2023-04-17T13:00:18.024Z,24.15
2023-04-17T13:02:45.787Z,27.13
2023-04-17T13:05:13.452Z,21.13
2023-04-17T13:07:40.966Z,23.73
2023-04-17T13:10:09.564Z,24.65
2023-04-17T13:12:37.282Z,24.02
2023-04-17T13:15:05.365Z,24.52
2023-04-17T13:17:34.246Z,25.33
2023-04-17T13:20:01.798Z,22.27
2023-04-17T13:22:29.266Z,23.58
2023-04-17T13:24:56.699Z,27.73
2023-04-17T13:27:25.449Z,26.13
2023-04-17T13:29:53.832Z,26.17
2023-04-17T13:32:21.486Z,26.50
2023-04-17T13:34:50.331Z,22.83
2023-04-17T13:37:18.197Z,26.35
2023-04-17T13:39:45.916Z,22.17
2023-04-17T13:42:16.950Z,22.73
2023-04-17T13:44:44.760Z,16.43
2023-04-17T13:47:14.221Z,24.45
2023-04-17T13:49:41.871Z,23.08
2023-04-17T13:52:10.790Z,23.33
2023-04-17T13:54:38.234Z,23.63
2023-04-17T13:57:06.550Z,22.17
2023-04-17T13:59:33.959Z,23.20
2023-04-17T14:02:04.052Z,24.45
2023-04-17T14:04:32.099Z,22.73
2023-04-17T14:06:59.770Z,27.95
2023-04-17T14:09:28.687Z,32.28
2023-04-17T14:11:57.027Z,26.08
2023-04-17T14:14:24.607Z,25.00
2023-04-17T14:16:52.054Z,25.73
2023-04-17T14:19:19.894Z,34.05
2023-04-17T14:21:47.675Z,26.00
2023-04-17T14:24:15.234Z,30.75
2023-04-17T14:26:44.326Z,31.20
2023-04-17T14:29:13.982Z,33.35
2023-04-17T14:31:41.875Z,30.67
2023-04-17T14:34:36.488Z,28.08
2023-04-17T14:37:03.990Z,31.90
2023-04-17T14:39:32.952Z,28.73
2023-04-17T14:42:02.115Z,28.27
2023-04-17T14:44:30.118Z,32.85
2023-04-17T14:46:57.734Z,31.80
2023-04-17T14:49:25.332Z,30.27
2023-04-17T14:51:54.150Z,29.95
2023-04-17T14:54:21.670Z,30.05
2023-04-17T14:56:50.196Z,36.50
2023-04-17T14:59:17.728Z,34.38
2023-04-17T15:01:45.294Z,39.83
2023-04-17T15:04:13.073Z,40.03
2023-04-17T15:06:40.788Z,39.78
2023-04-17T15:09:10.273Z,40.25
2023-04-17T15:11:37.977Z,34.38
2023-04-17T15:14:05.572Z,44.78
2023-04-17T15:16:33.123Z,40.08
2023-04-17T15:19:00.776Z,46.08
2023-04-17T15:21:28.265Z,40.25
2023-04-17T15:23:55.742Z,41.90
2023-04-17T15:26:25.815Z,48.50
2023-04-17T15:28:53.543Z,43.42
2023-04-17T15:31:21.295Z,43.67
2023-04-17T15:33:48.829Z,40.30
2023-04-17T15:36:16.581Z,40.13
2023-04-17T15:38:44.538Z,40.55
2023-04-17T15:41:12.157Z,41.72
2023-04-17T15:43:41.109Z,37.58
2023-04-17T15:46:09.056Z,36.75
2023-04-17T15:48:36.569Z,38.78
2023-04-17T15:51:04.762Z,41.75
2023-04-17T15:53:33.014Z,43.47
2023-04-17T15:56:00.667Z,43.45
2023-04-17T15:58:28.266Z,46.42
2023-04-17T16:00:57.210Z,38.65
2023-04-17T16:03:24.839Z,37.53
2023-04-17T16:05:54.103Z,38.03
2023-04-17T16:08:21.699Z,35.42
2023-04-17T16:10:49.593Z,32.38
2023-04-17T16:13:17.254Z,34.83
2023-04-17T16:15:44.997Z,34.58
2023-04-17T16:18:13.968Z,28.75
2023-04-17T16:20:41.579Z,33.65
2023-04-17T16:23:09.040Z,33.05
2023-04-17T16:25:36.654Z,35.38
2023-04-17T16:28:04.239Z,35.47
2023-04-17T16:30:31.808Z,37.78
2023-04-17T16:32:59.375Z,37.60
2023-04-17T16:35:30.009Z,35.10
2023-04-17T16:37:57.472Z,37.53
2023-04-17T16:40:26.547Z,37.45
2023-04-17T16:42:54.223Z,34.55
2023-04-17T16:45:21.810Z,33.35
2023-04-17T16:47:49.441Z,37.35
2023-04-17T16:50:16.953Z,33.85
2023-04-17T16:52:45.903Z,31.75
2023-04-17T16:55:13.798Z,34.42
2023-04-17T16:57:43.673Z,39.88
2023-04-17T17:00:12.483Z,32.03
2023-04-17T17:02:40.030Z,27.77
2023-04-17T17:05:08.483Z,29.00
2023-04-17T17:07:36.095Z,26.98
2023-04-17T17:10:05.711Z,27.25
2023-04-17T17:12:33.251Z,27.00
2023-04-17T17:15:00.646Z,26.77
2023-04-17T17:17:28.142Z,26.48
2023-04-17T17:19:55.627Z,25.48
2023-04-17T17:22:23.086Z,24.33
2023-04-17T17:24:50.901Z,24.10
2023-04-17T17:27:19.766Z,25.20
2023-04-17T17:29:47.255Z,26.42
2023-04-17T17:32:16.400Z,22.75
2023-04-17T17:34:44.150Z,25.35
2023-04-17T17:37:11.661Z,27.08
2023-04-17T17:39:39.144Z,24.00
2023-04-17T17:42:09.362Z,25.48
2023-04-17T17:44:38.565Z,25.33
2023-04-17T17:47:07.897Z,24.85
2023-04-17T17:49:35.794Z,27.88
2023-04-17T17:52:03.308Z,26.33
2023-04-17T17:54:30.875Z,28.40
2023-04-17T17:56:58.353Z,31.65
2023-04-17T17:59:26.585Z,31.17
2023-04-17T18:01:55.620Z,29.90
2023-04-17T18:04:23.586Z,28.25
2023-04-17T18:06:51.266Z,31.50
2023-04-17T18:09:18.819Z,30.17
2023-04-17T18:11:46.453Z,30.58
2023-04-17T18:14:14.156Z,32.45
2023-04-17T18:16:42.955Z,31.77
2023-04-17T18:19:11.824Z,32.17
2023-04-17T18:21:39.448Z,33.25
2023-04-17T18:24:07.875Z,33.17
2023-04-17T18:26:35.348Z,32.05
2023-04-17T18:29:02.841Z,34.35
2023-04-17T18:31:30.493Z,32.40
2023-04-17T18:34:02.188Z,33.90
2023-04-17T18:38:58.603Z,36.00
2023-04-17T18:41:27.090Z,33.47
2023-04-17T18:43:54.587Z,39.83
2023-04-17T18:46:23.818Z,39.25
2023-04-17T18:48:51.377Z,35.88
2023-04-17T18:51:18.861Z,45.85
2023-04-17T18:53:48.264Z,48.25
2023-04-17T18:56:15.906Z,45.20
2023-04-17T18:58:43.893Z,53.00
2023-04-17T19:01:11.600Z,46.90
2023-04-17T19:03:39.385Z,62.33
2023-04-17T19:06:07.595Z,55.30
2023-04-17T19:08:35.472Z,50.08
2023-04-17T19:11:04.521Z,53.40
2023-04-17T19:13:32.121Z,62.25
2023-04-17T19:15:59.828Z,67.07
2023-04-17T19:18:27.351Z,76.72
2023-04-17T19:20:55.082Z,79.80
2023-04-17T19:23:22.632Z,65.28
2023-04-17T19:25:53.724Z,65.28
2023-04-17T19:28:23.218Z,81.80
2023-04-17T19:30:50.879Z,94.32
2023-04-17T19:33:18.809Z,78.70
2023-04-17T19:35:46.453Z,85.45
2023-04-17T19:38:16.224Z,85.13
2023-04-17T19:40:47.822Z,81.40
2023-04-17T19:43:15.423Z,101.55
2023-04-17T19:45:44.494Z,101.45
2023-04-17T19:48:11.930Z,73.18
2023-04-17T19:50:39.502Z,87.55
2023-04-17T19:53:07.237Z,89.72
2023-04-17T19:55:34.705Z,82.55
2023-04-17T19:58:02.174Z,92.70
2023-04-17T20:00:29.776Z,87.05
2023-04-17T20:02:58.907Z,121.00
2023-04-17T20:05:27.482Z,116.85
2023-04-17T20:07:55.426Z,103.40
2023-04-17T20:10:23.112Z,133.05
2023-04-17T20:12:50.758Z,135.40
2023-04-17T20:15:19.872Z,131.48
2023-04-17T20:17:47.400Z,128.52
2023-04-17T20:20:16.340Z,125.20
2023-04-17T20:22:43.795Z,102.60
2023-04-17T20:25:11.937Z,119.45
2023-04-17T20:27:39.685Z,102.75
2023-04-17T20:30:08.404Z,109.45
2023-04-17T20:32:36.027Z,136.52
2023-04-17T20:35:03.804Z,128.00
2023-04-17T20:37:32.567Z,156.18
2023-04-17T20:40:00.193Z,99.65
2023-04-17T20:42:27.714Z,94.82
2023-04-17T20:44:55.366Z,108.40
2023-04-17T20:47:22.882Z,110.70
2023-04-17T20:49:50.444Z,100.57
2023-04-17T20:52:17.957Z,107.63
2023-04-17T20:54:46.754Z,100.00
2023-04-17T20:57:14.311Z,96.78
2023-04-17T20:59:41.794Z,109.97
2023-04-17T21:02:09.291Z,118.05
2023-04-17T21:04:37.024Z,99.07
2023-04-17T21:07:04.712Z,102.55
2023-04-17T21:09:32.165Z,113.05
2023-04-17T21:12:01.666Z,93.93
2023-04-17T21:14:30.460Z,111.03
2023-04-17T21:16:58.584Z,101.32
2023-04-17T21:19:27.335Z,93.68
2023-04-17T21:21:54.951Z,106.13
2023-04-17T21:24:22.786Z,87.25
2023-04-17T21:26:50.408Z,89.88
2023-04-17T21:29:19.198Z,99.38
2023-04-17T21:31:46.901Z,88.20
2023-04-17T21:34:14.732Z,85.65
2023-04-17T21:36:42.472Z,83.00
2023-04-17T21:39:10.002Z,102.35
2023-04-17T21:41:38.066Z,84.60
2023-04-17T21:44:05.862Z,99.43
2023-04-17T21:46:34.786Z,82.70
2023-04-17T21:49:02.287Z,84.80
2023-04-17T21:51:29.837Z,84.03
2023-04-17T21:53:57.280Z,104.18
2023-04-17T21:56:24.787Z,85.80
2023-04-17T21:58:52.422Z,112.85
2023-04-17T22:01:20.020Z,116.15
2023-04-17T22:03:48.852Z,78.38
2023-04-17T22:06:16.396Z,87.93
2023-04-17T22:08:44.163Z,86.32
2023-04-17T22:11:11.663Z,80.85
2023-04-17T22:13:39.223Z,109.80
2023-04-17T22:16:07.446Z,73.65
2023-04-17T22:18:34.971Z,75.20
2023-04-17T22:21:04.156Z,79.50
2023-04-17T22:23:31.652Z,99.38
2023-04-17T22:25:59.147Z,68.97
2023-04-17T22:28:29.765Z,81.90
2023-04-17T22:30:57.451Z,67.47
2023-04-17T22:33:25.024Z,69.15
2023-04-17T22:35:52.674Z,76.55
2023-04-17T22:38:21.789Z,68.53
2023-04-17T22:40:49.496Z,74.32
2023-04-17T22:43:17.024Z,65.72
2023-04-17T22:45:44.653Z,73.15
2023-04-17T22:48:12.198Z,92.93
2023-04-17T22:50:39.726Z,64.60
2023-04-17T22:53:07.366Z,70.85
2023-04-17T22:55:36.290Z,72.85
2023-04-17T22:58:04.437Z,63.72
2023-04-17T23:00:32.197Z,54.30
2023-04-17T23:02:59.781Z,61.50
2023-04-17T23:05:27.271Z,63.15
2023-04-17T23:07:54.749Z,86.82
2023-04-17T23:10:22.259Z,73.53
2023-04-17T23:12:51.070Z,69.32
2023-04-17T23:15:18.642Z,67.82
2023-04-17T23:17:46.413Z,64.22
2023-04-17T23:20:14.304Z,64.93
2023-04-17T23:22:41.863Z,77.78
2023-04-17T23:25:10.825Z,69.53
2023-04-17T23:27:38.392Z,80.85
2023-04-17T23:30:11.305Z,71.93
2023-04-17T23:32:41.581Z,58.03
2023-04-17T23:35:10.310Z,63.22
2023-04-17T23:37:37.856Z,59.03
2023-04-17T23:40:07.729Z,59.42
2023-04-17T23:42:35.542Z,54.13
2023-04-17T23:45:03.075Z,58.92
2023-04-17T23:47:31.997Z,50.88
2023-04-17T23:49:59.529Z,59.85
2023-04-17T23:52:27.901Z,52.60
2023-04-17T23:54:55.816Z,46.35
2023-04-17T23:57:23.342Z,52.38
2023-04-17T23:59:50.882Z,55.03
